Time;durP1;ratioP1;P1;durP2;ratioP2;P2;SDS_P1;SDS_P2;PMS_P1;PMS_P2;Temp;Humidity;BMP_temperature;BMP_pressure;BME280_temperature;BME280_humidity;BME280_pressure;Samples;Min_cycle;Max_cycle;Signal;HPM_P1;HPM_P2
2021/11/14 00:00:46;;;;;;;14.35;3.45;;;11.00;99.90;;;;;;5039718;28;20029;-59
2021/11/14 00:03:12;;;;;;;14.40;3.40;;;11.00;99.90;;;;;;5045879;28;20030;-59
2021/11/14 00:05:40;;;;;;;13.38;2.90;;;11.00;99.90;;;;;;5046577;28;20078;-58
2021/11/14 00:08:06;;;;;;;9.30;3.13;;;11.00;99.90;;;;;;5035653;28;20044;-59
2021/11/14 00:10:33;;;;;;;10.38;3.35;;;10.90;99.90;;;;;;5039639;28;20148;-59
2021/11/14 00:12:59;;;;;;;11.52;3.40;;;11.00;99.90;;;;;;5054966;28;20386;-58
2021/11/14 00:15:25;;;;;;;18.40;4.05;;;11.00;99.90;;;;;;5041830;28;20036;-58
2021/11/14 00:17:51;;;;;;;12.60;3.45;;;10.90;99.90;;;;;;5038626;28;20029;-58
2021/11/14 00:20:17;;;;;;;18.25;4.22;;;10.90;99.90;;;;;;5043211;28;20032;-59
2021/11/14 00:22:43;;;;;;;9.85;2.92;;;10.90;99.90;;;;;;5044815;28;20032;-59
2021/11/14 00:25:11;;;;;;;12.48;3.47;;;11.00;99.90;;;;;;5043134;28;20040;-59
2021/11/14 00:27:36;;;;;;;12.73;3.17;;;10.90;99.90;;;;;;5035248;28;20498;-59
2021/11/14 00:30:03;;;;;;;13.23;3.90;;;10.90;99.90;;;;;;5038370;28;20025;-59
2021/11/14 00:32:29;;;;;;;14.68;4.38;;;11.00;99.90;;;;;;5036607;28;20036;-57
2021/11/14 00:34:55;;;;;;;10.77;3.70;;;10.90;99.90;;;;;;5038605;28;20123;-59
2021/11/14 00:37:21;;;;;;;11.90;4.32;;;10.90;99.90;;;;;;5042061;28;20031;-59
2021/11/14 00:39:47;;;;;;;17.17;5.07;;;10.90;99.90;;;;;;5039871;28;20833;-59
2021/11/14 00:42:13;;;;;;;13.05;5.15;;;10.90;99.90;;;;;;5042741;28;20036;-59
2021/11/14 00:44:40;;;;;;;19.38;4.65;;;10.90;99.90;;;;;;5050879;28;20025;-58
2021/11/14 00:47:07;;;;;;;13.45;4.25;;;10.90;99.90;;;;;;5049212;28;20044;-59
2021/11/14 00:49:34;;;;;;;14.82;4.35;;;10.90;99.90;;;;;;5043102;28;20108;-60
2021/11/14 00:52:00;;;;;;;18.00;3.95;;;10.90;99.90;;;;;;5034613;28;20095;-58
2021/11/14 00:54:26;;;;;;;17.65;4.50;;;10.80;99.90;;;;;;5034055;28;20426;-57
2021/11/14 00:56:51;;;;;;;16.48;4.75;;;10.90;99.90;;;;;;5032610;28;20041;-59
2021/11/14 00:59:17;;;;;;;12.40;4.65;;;10.80;99.90;;;;;;5057475;28;20429;-59
2021/11/14 01:01:43;;;;;;;18.30;4.43;;;10.90;99.90;;;;;;5056250;28;20036;-58
2021/11/14 01:04:09;;;;;;;18.42;4.78;;;10.90;99.90;;;;;;5062865;28;20051;-59
2021/11/14 01:06:34;;;;;;;18.92;5.47;;;10.90;99.90;;;;;;5053905;28;20098;-58
2021/11/14 01:09:00;;;;;;;17.35;4.70;;;10.90;99.90;;;;;;5055271;28;20093;-59
2021/11/14 01:11:26;;;;;;;20.02;5.55;;;10.90;99.90;;;;;;5060091;28;20029;-58
2021/11/14 01:13:52;;;;;;;14.88;4.55;;;11.00;99.90;;;;;;5053852;28;20029;-60
2021/11/14 01:16:20;;;;;;;19.27;4.97;;;11.00;99.90;;;;;;5064258;28;20511;-58
2021/11/14 01:18:46;;;;;;;16.00;4.13;;;11.00;99.90;;;;;;5052333;28;20029;-57
2021/11/14 01:21:15;;;;;;;16.77;4.50;;;11.00;99.90;;;;;;5051346;28;20048;-58
2021/11/14 01:23:42;;;;;;;15.45;4.15;;;10.90;99.90;;;;;;5067461;28;20033;-59
2021/11/14 01:26:09;;;;;;;19.52;5.18;;;10.90;99.90;;;;;;5053852;28;20115;-59
2021/11/14 01:28:34;;;;;;;17.92;4.90;;;10.90;99.90;;;;;;5054341;28;20025;-60
2021/11/14 01:31:00;;;;;;;16.27;4.78;;;10.80;99.90;;;;;;5064480;28;20390;-59
2021/11/14 01:33:28;;;;;;;14.32;4.70;;;10.80;99.90;;;;;;5067918;28;20154;-59
2021/11/14 01:35:55;;;;;;;15.95;4.78;;;10.90;99.90;;;;;;5056284;28;20127;-58
2021/11/14 01:38:21;;;;;;;19.23;4.80;;;10.90;99.90;;;;;;5050291;28;20037;-59
2021/11/14 01:40:51;;;;;;;23.15;4.90;;;10.90;99.90;;;;;;5056312;28;20060;-61
2021/11/14 01:43:21;;;;;;;15.30;4.75;;;10.90;99.90;;;;;;5060161;28;20028;-58
2021/11/14 01:45:47;;;;;;;20.45;4.30;;;10.80;99.90;;;;;;5069902;28;20051;-57
2021/11/14 01:48:13;;;;;;;15.52;4.20;;;10.80;99.90;;;;;;5062400;28;20028;-58
2021/11/14 01:50:40;;;;;;;18.80;4.57;;;10.80;99.90;;;;;;5063718;28;20480;-59
2021/11/14 01:53:07;;;;;;;18.75;4.82;;;10.80;99.90;;;;;;5058307;28;20064;-57
2021/11/14 01:55:34;;;;;;;15.20;5.03;;;10.80;99.90;;;;;;5069942;28;20040;-59
2021/11/14 01:58:01;;;;;;;16.27;4.55;;;10.80;99.90;;;;;;5062137;28;20060;-59
2021/11/14 02:00:38;;;;;;;14.95;4.47;;;10.80;99.90;;;;;;5047748;28;20057;-59
2021/11/14 02:03:04;;;;;;;15.98;4.82;;;10.80;99.90;;;;;;5043066;28;20025;-61
2021/11/14 02:05:33;;;;;;;20.15;5.13;;;10.80;99.90;;;;;;5030803;28;20467;-60
2021/11/14 02:08:01;;;;;;;23.60;5.50;;;10.80;99.90;;;;;;5032577;28;20112;-60
2021/11/14 02:10:28;;;;;;;19.17;4.70;;;10.80;99.90;;;;;;5038836;28;20480;-59
2021/11/14 02:12:55;;;;;;;19.80;4.88;;;10.80;99.90;;;;;;5039503;28;20048;-60
2021/11/14 02:15:21;;;;;;;18.35;5.22;;;10.80;99.90;;;;;;5033592;28;20045;-59
2021/11/14 02:17:47;;;;;;;19.77;5.15;;;10.80;99.90;;;;;;5040761;28;20064;-57
2021/11/14 02:20:14;;;;;;;21.83;5.00;;;10.80;99.90;;;;;;5043678;28;20071;-59
2021/11/14 02:22:40;;;;;;;15.32;5.38;;;10.80;99.90;;;;;;5040020;28;20036;-59
2021/11/14 02:25:08;;;;;;;21.45;5.97;;;10.70;99.90;;;;;;5035122;28;20393;-58
2021/11/14 02:27:34;;;;;;;21.75;5.72;;;10.80;99.90;;;;;;5037599;28;20033;-58
2021/11/14 02:30:00;;;;;;;21.63;5.82;;;10.80;99.90;;;;;;5047141;28;20039;-58
2021/11/14 02:32:26;;;;;;;19.27;5.10;;;10.80;99.90;;;;;;5043975;28;20131;-59
2021/11/14 02:34:52;;;;;;;19.67;5.50;;;10.70;99.90;;;;;;5039520;28;20625;-59
2021/11/14 02:37:18;;;;;;;20.92;5.78;;;10.70;99.90;;;;;;5040170;28;20036;-59
2021/11/14 02:39:43;;;;;;;17.02;5.40;;;10.70;99.90;;;;;;5037368;28;20061;-59
2021/11/14 02:42:09;;;;;;;26.58;6.47;;;10.80;99.90;;;;;;5049532;28;20387;-59
2021/11/14 02:44:35;;;;;;;25.98;7.18;;;10.70;99.90;;;;;;5051760;28;20060;-58
2021/11/14 02:47:01;;;;;;;18.05;6.53;;;10.70;99.90;;;;;;5041676;28;20030;-59
2021/11/14 02:49:26;;;;;;;17.45;6.00;;;10.70;99.90;;;;;;5040307;28;20053;-58
2021/11/14 02:51:53;;;;;;;24.10;7.00;;;10.70;99.90;;;;;;5047502;28;20033;-58
2021/11/14 02:54:20;;;;;;;23.08;6.60;;;10.70;99.90;;;;;;5050329;28;20064;-58
2021/11/14 02:56:46;;;;;;;20.48;6.15;;;10.70;99.90;;;;;;5049522;28;20047;-57
2021/11/14 02:59:12;;;;;;;23.80;6.72;;;10.80;99.90;;;;;;5066072;28;20131;-59
2021/11/14 03:01:47;;;;;;;22.13;6.47;;;10.70;99.90;;;;;;5062406;28;20025;-59
2021/11/14 03:04:18;;;;;;;20.42;6.97;;;10.70;99.90;;;;;;5068216;28;20024;-60
2021/11/14 03:06:44;;;;;;;23.30;6.70;;;10.70;99.90;;;;;;5056778;28;20063;-60
2021/11/14 03:09:10;;;;;;;22.73;6.90;;;10.70;99.90;;;;;;5064250;28;20028;-59
2021/11/14 03:11:36;;;;;;;25.70;7.38;;;10.80;99.90;;;;;;5069314;28;20031;-58
2021/11/14 03:14:03;;;;;;;22.75;7.25;;;10.80;99.90;;;;;;5070798;28;20132;-58
2021/11/14 03:16:29;;;;;;;21.80;7.18;;;10.80;99.90;;;;;;5061682;28;20035;-58
2021/11/14 03:18:56;;;;;;;22.25;7.97;;;10.80;99.90;;;;;;5066690;28;20031;-58
2021/11/14 03:21:22;;;;;;;19.00;7.15;;;10.70;99.90;;;;;;5059290;28;20098;-58
2021/11/14 03:23:48;;;;;;;23.77;8.13;;;10.70;99.90;;;;;;5057756;28;20055;-59
2021/11/14 03:26:15;;;;;;;24.85;7.93;;;10.70;99.90;;;;;;5056896;28;20060;-59
2021/11/14 03:28:41;;;;;;;26.88;7.85;;;10.70;99.90;;;;;;5054032;28;20074;-59
2021/11/14 03:31:07;;;;;;;24.92;7.13;;;10.70;99.90;;;;;;5058990;28;20110;-60
2021/11/14 03:33:33;;;;;;;27.67;7.45;;;10.70;99.90;;;;;;5058659;28;20024;-60
2021/11/14 03:36:05;;;;;;;25.10;6.82;;;10.70;99.90;;;;;;5061869;28;20032;-59
2021/11/14 03:38:47;;;;;;;18.55;6.75;;;10.70;99.90;;;;;;5061257;28;20037;-60
2021/11/14 03:41:16;;;;;;;18.70;6.97;;;10.70;99.90;;;;;;5064269;28;20032;-58
2021/11/14 03:43:43;;;;;;;18.48;6.78;;;10.70;99.90;;;;;;5061072;28;20774;-58
2021/11/14 03:46:10;;;;;;;17.85;6.35;;;10.70;99.90;;;;;;5062414;28;20497;-59
2021/11/14 03:48:40;;;;;;;17.42;6.18;;;10.70;99.90;;;;;;5065307;28;20029;-60
2021/11/14 03:51:07;;;;;;;18.40;6.90;;;10.70;99.90;;;;;;5057085;28;20063;-57
2021/11/14 03:53:33;;;;;;;24.13;7.20;;;10.70;99.90;;;;;;5068602;28;20035;-58
2021/11/14 03:55:59;;;;;;;20.88;7.97;;;10.70;99.90;;;;;;5062796;28;20087;-59
2021/11/14 03:58:25;;;;;;;19.38;7.25;;;10.70;99.90;;;;;;5056926;28;20886;-59
2021/11/14 04:00:55;;;;;;;22.17;7.70;;;10.70;99.90;;;;;;5044500;28;20040;-59
2021/11/14 04:03:22;;;;;;;27.88;8.25;;;10.70;99.90;;;;;;5035916;28;20025;-59
2021/11/14 04:05:48;;;;;;;19.95;8.50;;;10.70;99.90;;;;;;5043103;28;20477;-58
2021/11/14 04:08:19;;;;;;;22.60;9.23;;;10.70;99.90;;;;;;5045023;28;20033;-59
2021/11/14 04:10:47;;;;;;;24.30;7.95;;;10.70;99.90;;;;;;5043424;28;20021;-59
2021/11/14 04:13:13;;;;;;;29.10;8.75;;;10.70;99.90;;;;;;5045094;28;20031;-59
2021/11/14 04:15:40;;;;;;;29.98;8.90;;;10.70;99.90;;;;;;5033185;28;20030;-59
2021/11/14 04:18:07;;;;;;;26.90;8.80;;;10.70;99.90;;;;;;5031959;28;20098;-60
2021/11/14 04:20:35;;;;;;;29.70;9.02;;;10.70;99.90;;;;;;5048058;28;20037;-58
2021/11/14 04:23:01;;;;;;;25.77;9.13;;;10.70;99.90;;;;;;5041977;28;20124;-59
2021/11/14 04:25:27;;;;;;;30.88;9.30;;;10.70;99.90;;;;;;5033545;28;20044;-58
2021/11/14 04:27:55;;;;;;;37.70;10.18;;;10.70;99.90;;;;;;5038515;28;20037;-60
2021/11/14 04:30:21;;;;;;;32.78;9.15;;;10.80;99.90;;;;;;5032524;28;20384;-59
2021/11/14 04:32:47;;;;;;;28.13;9.32;;;10.80;99.90;;;;;;5038801;28;20029;-58
2021/11/14 04:35:14;;;;;;;37.20;10.18;;;10.70;99.90;;;;;;5037050;28;20024;-57
2021/11/14 04:37:40;;;;;;;36.25;10.38;;;10.80;99.90;;;;;;5041636;28;20032;-59
2021/11/14 04:40:09;;;;;;;34.50;9.85;;;10.80;99.90;;;;;;5035997;28;20104;-58
2021/11/14 04:42:35;;;;;;;30.05;8.90;;;10.70;99.90;;;;;;5045453;28;20131;-60
2021/11/14 04:45:03;;;;;;;24.10;9.00;;;10.70;99.90;;;;;;5042121;28;20037;-59
2021/11/14 04:47:29;;;;;;;27.85;9.60;;;10.70;99.90;;;;;;5046484;28;20036;-59
2021/11/14 04:49:54;;;;;;;32.45;9.45;;;10.70;99.90;;;;;;5048610;28;20025;-56
2021/11/14 04:52:21;;;;;;;32.15;9.98;;;10.70;99.90;;;;;;5034205;28;20053;-59
2021/11/14 04:54:46;;;;;;;31.33;9.65;;;10.80;99.90;;;;;;5038904;28;20028;-58
2021/11/14 04:57:12;;;;;;;30.45;9.00;;;10.70;99.90;;;;;;5039005;28;20037;-60
2021/11/14 04:59:38;;;;;;;32.08;10.23;;;10.80;99.90;;;;;;5039268;28;20089;-59
2021/11/14 05:02:04;;;;;;;35.47;10.68;;;10.80;99.90;;;;;;5033756;28;20071;-59
2021/11/14 05:04:29;;;;;;;29.35;10.23;;;10.80;99.90;;;;;;5046483;28;20033;-59
2021/11/14 05:06:55;;;;;;;38.17;10.52;;;10.80;99.90;;;;;;5014570;28;20033;-59
2021/11/14 05:09:21;;;;;;;30.50;9.32;;;10.80;99.90;;;;;;5041815;28;20035;-58
2021/11/14 05:11:47;;;;;;;26.23;9.60;;;10.80;99.90;;;;;;5039107;28;20025;-59
2021/11/14 05:14:12;;;;;;;31.85;10.02;;;10.80;99.90;;;;;;5042716;28;20112;-59
2021/11/14 05:16:38;;;;;;;33.33;10.50;;;10.80;99.90;;;;;;5036100;28;20040;-58
2021/11/14 05:19:04;;;;;;;37.83;10.25;;;10.80;99.90;;;;;;5034042;28;20029;-58
2021/11/14 05:21:29;;;;;;;32.92;10.43;;;10.80;99.90;;;;;;5031536;28;20034;-59
2021/11/14 05:23:55;;;;;;;26.45;10.57;;;10.80;99.90;;;;;;5041389;28;20025;-58
2021/11/14 05:26:21;;;;;;;30.33;10.18;;;10.80;99.90;;;;;;5045384;28;20545;-58
2021/11/14 05:28:46;;;;;;;29.48;9.88;;;10.80;99.90;;;;;;5039856;28;20112;-58
2021/11/14 05:31:13;;;;;;;28.70;9.77;;;10.80;99.90;;;;;;5035356;28;20380;-59
2021/11/14 05:33:39;;;;;;;25.95;10.07;;;10.80;99.90;;;;;;5045219;28;20028;-58
2021/11/14 05:36:04;;;;;;;23.98;10.18;;;10.80;99.90;;;;;;5044040;28;20037;-57
2021/11/14 05:38:30;;;;;;;24.90;9.95;;;10.80;99.90;;;;;;5038589;28;20052;-60
2021/11/14 05:40:56;;;;;;;22.60;9.20;;;10.80;99.90;;;;;;5038618;28;20048;-59
2021/11/14 05:43:22;;;;;;;22.52;8.93;;;10.80;99.90;;;;;;5040749;28;20044;-57
2021/11/14 05:45:47;;;;;;;17.55;8.52;;;10.80;99.90;;;;;;5038540;28;20387;-58
2021/11/14 05:48:13;;;;;;;18.88;8.52;;;10.80;99.90;;;;;;5019686;28;20399;-58
2021/11/14 05:50:39;;;;;;;19.40;8.30;;;10.90;99.90;;;;;;5038084;28;20498;-59
2021/11/14 05:53:06;;;;;;;17.90;9.38;;;10.80;99.90;;;;;;5030203;28;20033;-59
2021/11/14 05:55:33;;;;;;;18.77;9.10;;;10.80;99.90;;;;;;5036109;28;20036;-59
2021/11/14 05:58:02;;;;;;;24.52;10.00;;;10.90;99.90;;;;;;5048550;28;20092;-59
2021/11/14 06:03:12;;;;;;;16.85;8.50;;;10.80;99.90;;;;;;5045275;28;20033;-60
2021/11/14 06:05:38;;;;;;;16.50;9.18;;;10.80;99.90;;;;;;5035519;28;20060;-60
2021/11/14 06:08:05;;;;;;;26.50;10.10;;;10.90;99.90;;;;;;5037505;28;20030;-57
2021/11/14 06:10:32;;;;;;;18.95;9.63;;;10.90;99.90;;;;;;5043616;28;20202;-59
2021/11/14 06:12:58;;;;;;;20.52;9.57;;;10.80;99.90;;;;;;5044148;28;20036;-59
2021/11/14 06:15:24;;;;;;;22.00;10.20;;;10.90;99.90;;;;;;5041576;28;20650;-58
2021/11/14 06:17:50;;;;;;;25.02;10.55;;;10.80;99.90;;;;;;5042245;28;20038;-59
2021/11/14 06:20:17;;;;;;;24.23;10.52;;;10.90;99.90;;;;;;5042711;28;20032;-58
2021/11/14 06:22:43;;;;;;;29.02;11.77;;;10.90;99.90;;;;;;5039430;28;20037;-58
2021/11/14 06:25:09;;;;;;;31.52;12.57;;;10.90;99.90;;;;;;5043289;28;20030;-57
2021/11/14 06:27:36;;;;;;;38.63;13.90;;;10.90;99.90;;;;;;5037207;28;20021;-59
2021/11/14 06:30:06;;;;;;;36.10;13.32;;;10.90;99.90;;;;;;5034007;28;20115;-58
2021/11/14 06:32:32;;;;;;;42.75;15.20;;;10.90;99.90;;;;;;5049801;28;20088;-60
2021/11/14 06:34:59;;;;;;;32.92;13.27;;;10.90;99.90;;;;;;5044370;28;20033;-58
2021/11/14 06:37:26;;;;;;;34.90;14.07;;;10.90;99.90;;;;;;5037971;28;20479;-58
2021/11/14 06:39:51;;;;;;;42.75;14.40;;;10.90;99.90;;;;;;5036591;28;20116;-60
2021/11/14 06:42:17;;;;;;;44.15;15.55;;;10.90;99.90;;;;;;5037026;28;20120;-58
2021/11/14 06:44:44;;;;;;;38.17;14.50;;;11.00;99.90;;;;;;5040664;28;20057;-59
2021/11/14 06:47:11;;;;;;;39.67;14.50;;;11.00;99.90;;;;;;5038270;28;20022;-58
2021/11/14 06:49:36;;;;;;;45.05;15.32;;;10.90;99.90;;;;;;5039080;28;20078;-59
2021/11/14 06:52:03;;;;;;;42.55;14.70;;;10.90;99.90;;;;;;5046436;28;20033;-59
2021/11/14 06:54:29;;;;;;;43.42;15.52;;;10.90;99.90;;;;;;5041735;28;20037;-58
2021/11/14 06:56:54;;;;;;;50.28;16.40;;;10.90;99.90;;;;;;5046279;28;20037;-59
2021/11/14 06:59:20;;;;;;;51.17;15.93;;;10.90;99.90;;;;;;5044666;28;20101;-59
2021/11/14 07:01:46;;;;;;;40.38;15.20;;;10.90;99.90;;;;;;5038078;28;20037;-58
2021/11/14 07:04:12;;;;;;;52.33;16.13;;;10.90;99.90;;;;;;5044074;28;20486;-58
2021/11/14 07:06:38;;;;;;;38.58;15.27;;;10.90;99.90;;;;;;5043015;28;20663;-59
2021/11/14 07:09:05;;;;;;;43.85;15.55;;;11.00;99.90;;;;;;5049522;28;20068;-59
2021/11/14 07:11:30;;;;;;;47.90;14.80;;;10.90;99.90;;;;;;5047606;28;20025;-58
2021/11/14 07:13:56;;;;;;;39.97;14.35;;;10.90;99.90;;;;;;5036946;28;20025;-60
2021/11/14 07:16:22;;;;;;;42.35;14.90;;;10.90;99.90;;;;;;5039988;28;20055;-59
2021/11/14 07:18:48;;;;;;;47.50;15.00;;;10.90;99.90;;;;;;5037789;28;20127;-58
2021/11/14 07:21:14;;;;;;;47.80;15.48;;;10.90;99.90;;;;;;5052965;28;20429;-59
2021/11/14 07:23:39;;;;;;;46.38;14.85;;;10.90;99.90;;;;;;5031271;28;20034;-59
2021/11/14 07:26:05;;;;;;;43.33;15.57;;;11.00;99.90;;;;;;5043643;28;20021;-57
2021/11/14 07:28:31;;;;;;;44.50;15.65;;;11.00;99.90;;;;;;5033153;28;20036;-59
2021/11/14 07:30:56;;;;;;;44.03;15.82;;;11.00;99.90;;;;;;5050845;28;20521;-60
2021/11/14 07:33:22;;;;;;;44.05;15.63;;;11.00;99.90;;;;;;5041720;28;20104;-59
2021/11/14 07:35:48;;;;;;;45.28;15.50;;;11.00;99.90;;;;;;5046171;28;20430;-56
2021/11/14 07:38:14;;;;;;;46.28;15.63;;;11.00;99.90;;;;;;5035513;28;20049;-57
2021/11/14 07:40:39;;;;;;;43.72;15.60;;;11.00;99.90;;;;;;5044581;28;20519;-60
2021/11/14 07:43:05;;;;;;;41.42;15.52;;;11.00;99.90;;;;;;5048094;28;20029;-60
2021/11/14 07:45:31;;;;;;;49.28;15.95;;;11.00;99.90;;;;;;5038126;28;20068;-59
2021/11/14 07:47:57;;;;;;;45.50;15.13;;;11.00;99.90;;;;;;5040911;28;20034;-58
2021/11/14 07:50:27;;;;;;;44.38;15.52;;;11.00;99.90;;;;;;5035581;28;20044;-59
2021/11/14 07:52:54;;;;;;;46.17;15.63;;;11.00;99.90;;;;;;5044829;28;20029;-60
2021/11/14 07:55:20;;;;;;;50.00;16.70;;;11.00;99.90;;;;;;5045283;28;20025;-58
2021/11/14 07:57:46;;;;;;;48.20;15.98;;;11.00;99.90;;;;;;5040222;28;20192;-59
2021/11/14 08:00:21;;;;;;;55.00;17.52;;;11.10;99.90;;;;;;5040344;28;20095;-59
2021/11/14 08:02:47;;;;;;;;;;;11.10;99.90;;;;;;5048094;28;20033;-59
2021/11/14 08:05:14;;;;;;;50.65;17.08;;;11.00;99.90;;;;;;5037356;28;19909;-59
2021/11/14 08:07:40;;;;;;;47.50;15.45;;;11.10;99.90;;;;;;5044648;28;20086;-60
2021/11/14 08:10:07;;;;;;;53.38;17.65;;;11.10;99.90;;;;;;5033235;28;20029;-60
2021/11/14 08:12:33;;;;;;;54.75;18.25;;;11.10;99.90;;;;;;5035722;28;20029;-60
2021/11/14 08:15:00;;;;;;;67.18;18.83;;;11.10;99.90;;;;;;5035146;28;20545;-60
2021/11/14 08:17:26;;;;;;;58.40;17.67;;;11.10;99.90;;;;;;5034905;28;20043;-60
2021/11/14 08:19:52;;;;;;;60.53;18.08;;;11.10;99.90;;;;;;5048942;28;20049;-59
2021/11/14 08:22:21;;;;;;;61.38;18.40;;;11.20;99.90;;;;;;5042943;28;20033;-60
2021/11/14 08:24:51;;;;;;;58.47;18.38;;;11.20;99.90;;;;;;5039257;28;20167;-60
2021/11/14 08:27:16;;;;;;;55.97;17.40;;;11.20;99.90;;;;;;5036366;28;20032;-59
2021/11/14 08:29:42;;;;;;;47.50;16.88;;;11.20;99.90;;;;;;5045591;28;20036;-59
2021/11/14 08:32:08;;;;;;;53.05;16.50;;;11.30;99.90;;;;;;5034767;28;20537;-58
2021/11/14 08:34:34;;;;;;;53.78;16.33;;;11.30;99.90;;;;;;5041301;28;20025;-59
2021/11/14 08:37:00;;;;;;;55.15;17.58;;;11.30;99.90;;;;;;5032142;28;20033;-59
2021/11/14 08:39:26;;;;;;;48.85;16.80;;;11.30;99.90;;;;;;5040254;28;20035;-58
2021/11/14 08:41:51;;;;;;;56.17;18.00;;;11.30;99.90;;;;;;5038991;28;20038;-58
2021/11/14 08:44:17;;;;;;;55.92;18.90;;;11.40;99.90;;;;;;5044366;28;20090;-59
2021/11/14 08:46:43;;;;;;;54.83;18.85;;;11.40;99.90;;;;;;5041156;28;20033;-58
2021/11/14 08:49:09;;;;;;;63.60;20.13;;;11.50;99.90;;;;;;5045917;28;20044;-60
2021/11/14 08:51:34;;;;;;;54.75;17.70;;;11.50;99.90;;;;;;5047531;28;20543;-61
2021/11/14 08:54:00;;;;;;;53.05;17.52;;;11.50;99.90;;;;;;5043274;28;20025;-60
2021/11/14 08:56:31;;;;;;;58.45;19.60;;;11.50;99.90;;;;;;5032992;28;20108;-59
2021/11/14 08:58:56;;;;;;;54.47;18.27;;;11.50;99.90;;;;;;5039995;28;20407;-59
2021/11/14 09:01:22;;;;;;;68.22;23.40;;;11.60;99.90;;;;;;5031138;28;20040;-58
2021/11/14 09:03:48;;;;;;;52.25;18.48;;;11.60;99.90;;;;;;5039639;28;20033;-58
2021/11/14 09:06:15;;;;;;;53.42;19.17;;;11.60;99.90;;;;;;5040597;28;20043;-60
2021/11/14 09:08:41;;;;;;;48.05;19.35;;;11.60;99.90;;;;;;5041346;28;20029;-60
2021/11/14 09:11:08;;;;;;;57.00;19.08;;;11.70;99.90;;;;;;5030550;28;20033;-59
2021/11/14 09:13:34;;;;;;;55.70;20.70;;;11.70;99.90;;;;;;5040461;28;20052;-59
2021/11/14 09:16:00;;;;;;;50.10;18.20;;;11.80;99.90;;;;;;5045774;28;20033;-59
2021/11/14 09:18:27;;;;;;;61.88;18.65;;;11.80;99.90;;;;;;5035413;28;20032;-58
2021/11/14 09:20:53;;;;;;;47.92;18.75;;;11.80;99.90;;;;;;5030377;28;20036;-59
2021/11/14 09:23:20;;;;;;;56.70;17.75;;;11.90;99.90;;;;;;5041555;28;20104;-59
2021/11/14 09:25:49;;;;;;;56.38;18.30;;;11.80;99.90;;;;;;5021278;28;20453;-59
2021/11/14 09:28:17;;;;;;;50.97;18.42;;;11.90;99.90;;;;;;5035585;28;20477;-59
2021/11/14 09:30:48;;;;;;;47.70;19.38;;;11.90;99.90;;;;;;5046166;28;20021;-57
2021/11/14 09:33:15;;;;;;;43.67;16.50;;;12.00;99.90;;;;;;5044945;28;20104;-61
2021/11/14 09:35:40;;;;;;;44.90;16.27;;;12.00;99.90;;;;;;5039671;28;20529;-60
2021/11/14 09:38:07;;;;;;;48.28;17.35;;;12.00;99.90;;;;;;5041635;28;20033;-59
2021/11/14 09:40:34;;;;;;;46.38;16.13;;;12.00;99.90;;;;;;5017341;28;21369;-60
2021/11/14 09:43:01;;;;;;;42.10;15.45;;;12.10;99.90;;;;;;5034169;28;20439;-60
2021/11/14 09:45:30;;;;;;;40.45;14.52;;;12.10;99.90;;;;;;5034481;28;20037;-60
2021/11/14 09:47:56;;;;;;;37.72;15.23;;;12.10;99.90;;;;;;5021098;28;20343;-60
2021/11/14 09:50:24;;;;;;;37.00;15.65;;;12.20;99.90;;;;;;5039954;28;20029;-59
2021/11/14 09:52:50;;;;;;;39.78;14.98;;;12.20;99.90;;;;;;5033090;28;20045;-58
2021/11/14 09:55:16;;;;;;;41.08;15.32;;;12.30;99.90;;;;;;5034355;28;20029;-59
2021/11/14 09:57:42;;;;;;;37.53;14.90;;;12.30;99.90;;;;;;5036031;28;20060;-59
2021/11/14 10:00:12;;;;;;;41.80;15.52;;;12.30;99.90;;;;;;5039105;28;20037;-59
2021/11/14 10:02:39;;;;;;;33.78;13.52;;;12.30;99.90;;;;;;5047361;28;20083;-59
2021/11/14 10:05:07;;;;;;;35.58;13.88;;;12.30;99.90;;;;;;5041084;28;20033;-59
2021/11/14 10:07:32;;;;;;;42.60;13.63;;;12.30;99.90;;;;;;5045068;28;20103;-59
2021/11/14 10:09:59;;;;;;;33.03;12.88;;;12.30;99.90;;;;;;5035701;28;20071;-59
2021/11/14 10:12:35;;;;;;;33.63;12.57;;;12.30;99.90;;;;;;5045520;28;20036;-59
2021/11/14 10:15:07;;;;;;;31.70;12.88;;;12.30;99.90;;;;;;5038915;28;20518;-58
2021/11/14 10:17:34;;;;;;;34.17;12.25;;;12.40;99.90;;;;;;5035696;28;20041;-59
2021/11/14 10:20:23;;;;;;;32.90;12.32;;;12.50;99.90;;;;;;5042481;28;20029;-60
2021/11/14 10:22:52;;;;;;;29.55;10.82;;;12.50;99.90;;;;;;5041488;28;20025;-59
2021/11/14 10:25:19;;;;;;;29.38;9.75;;;12.50;99.90;;;;;;5044944;28;20026;-59
2021/11/14 10:27:54;;;;;;;29.92;10.23;;;12.50;99.90;;;;;;5034741;28;20530;-59
2021/11/14 10:30:24;;;;;;;25.15;8.88;;;12.60;99.90;;;;;;5044107;28;20104;-57
2021/11/14 10:32:55;;;;;;;20.15;8.23;;;12.70;99.90;;;;;;5033988;28;20123;-60
2021/11/14 10:35:22;;;;;;;27.35;8.93;;;12.70;99.90;;;;;;5038242;28;20026;-58
2021/11/14 10:37:49;;;;;;;23.40;8.75;;;12.80;99.90;;;;;;5035805;28;20037;-61
2021/11/14 10:40:22;;;;;;;21.83;9.35;;;12.80;99.90;;;;;;5047167;28;20781;-59
2021/11/14 10:42:52;;;;;;;25.95;8.48;;;12.90;99.90;;;;;;5045388;28;20083;-60
2021/11/14 10:45:19;;;;;;;23.85;8.63;;;12.90;99.90;;;;;;5043443;28;20032;-59
2021/11/14 10:48:00;;;;;;;25.70;9.05;;;12.90;99.90;;;;;;5042712;28;20083;-59
2021/11/14 10:50:34;;;;;;;21.88;7.78;;;12.80;99.90;;;;;;5041665;28;20032;-59
2021/11/14 10:53:05;;;;;;;15.50;6.57;;;12.80;99.90;;;;;;5038066;28;20041;-60
2021/11/14 10:55:41;;;;;;;19.35;6.28;;;12.80;99.90;;;;;;5041475;28;20086;-58
2021/11/14 10:58:08;;;;;;;15.15;6.22;;;12.80;99.90;;;;;;5044029;28;20053;-58
2021/11/14 11:00:35;;;;;;;15.63;6.28;;;12.80;99.90;;;;;;5060940;28;20475;-59
2021/11/14 11:03:02;;;;;;;13.77;6.05;;;12.80;99.90;;;;;;5060191;28;20078;-59
2021/11/14 11:05:29;;;;;;;18.17;6.00;;;12.80;99.90;;;;;;5063201;28;20028;-59
2021/11/14 11:08:06;;;;;;;14.60;6.07;;;12.80;99.90;;;;;;5069333;28;20046;-58
2021/11/14 11:10:34;;;;;;;17.80;6.68;;;12.90;99.90;;;;;;5065847;28;20087;-59
2021/11/14 11:13:02;;;;;;;18.08;6.10;;;12.90;99.90;;;;;;5057462;28;20564;-59
2021/11/14 11:15:42;;;;;;;15.13;5.82;;;12.90;99.90;;;;;;5056507;28;20098;-60
2021/11/14 11:18:10;;;;;;;14.30;6.15;;;13.00;99.90;;;;;;5061466;28;20099;-58
2021/11/14 11:20:36;;;;;;;14.77;6.25;;;13.00;99.90;;;;;;5062009;28;20059;-60
2021/11/14 11:23:07;;;;;;;13.10;5.88;;;13.00;99.90;;;;;;5066648;28;20120;-60
2021/11/14 11:25:46;;;;;;;14.35;7.03;;;13.00;99.90;;;;;;5065887;28;20096;-61
2021/11/14 11:28:21;;;;;;;11.77;5.30;;;13.10;99.90;;;;;;5053242;28;20040;-60
2021/11/14 11:30:51;;;;;;;;;;;13.00;99.90;;;;;;5065371;28;20020;-60
2021/11/14 11:33:21;;;;;;;15.25;5.40;;;13.10;99.90;;;;;;5066631;28;19915;-61
2021/11/14 11:35:49;;;;;;;13.52;5.25;;;13.00;99.90;;;;;;5060879;28;20487;-60
2021/11/14 11:38:15;;;;;;;14.70;5.40;;;13.10;99.90;;;;;;5055704;28;20649;-60
2021/11/14 11:40:41;;;;;;;14.07;5.47;;;13.10;99.90;;;;;;5053361;28;20033;-60
2021/11/14 11:43:08;;;;;;;15.10;5.68;;;13.10;99.90;;;;;;5054968;28;20044;-61
2021/11/14 11:45:37;;;;;;;10.63;4.82;;;13.10;99.90;;;;;;5056843;28;20029;-61
2021/11/14 11:48:13;;;;;;;12.35;5.28;;;13.20;99.90;;;;;;5052173;28;20056;-61
2021/11/14 11:50:39;;;;;;;12.95;5.28;;;13.20;99.90;;;;;;5055425;28;20475;-60
2021/11/14 11:53:05;;;;;;;14.65;5.97;;;13.20;99.90;;;;;;5056409;28;20032;-60
2021/11/14 11:55:35;;;;;;;16.40;5.78;;;13.20;99.90;;;;;;5058419;28;20045;-61
2021/11/14 11:58:35;;;;;;;13.50;5.50;;;13.20;99.90;;;;;;5055827;28;20483;-61
2021/11/14 12:01:01;;;;;;;13.45;5.57;;;13.20;99.90;;;;;;5037753;28;20056;-60
2021/11/14 12:03:31;;;;;;;12.73;5.55;;;13.30;99.90;;;;;;5051259;28;20059;-59
2021/11/14 12:05:59;;;;;;;15.07;5.60;;;13.30;99.90;;;;;;5035647;28;20052;-62
2021/11/14 12:08:41;;;;;;;11.98;5.68;;;13.40;99.90;;;;;;5015888;28;20034;-61
2021/11/14 12:11:10;;;;;;;15.48;7.07;;;13.30;99.90;;;;;;5043093;28;20026;-60
2021/11/14 12:13:40;;;;;;;10.52;5.10;;;13.40;99.90;;;;;;5040352;28;20439;-60
2021/11/14 12:16:06;;;;;;;15.23;5.72;;;13.40;99.90;;;;;;5037884;28;20032;-60
2021/11/14 12:18:42;;;;;;;11.95;5.40;;;13.40;99.90;;;;;;5038497;28;20028;-59
2021/11/14 12:21:34;;;;;;;12.05;4.95;;;13.40;99.90;;;;;;5047683;28;20040;-60
2021/11/14 12:24:04;;;;;;;12.00;5.47;;;13.30;99.90;;;;;;5032479;28;20503;-60
2021/11/14 12:26:35;;;;;;;9.73;5.05;;;13.40;99.90;;;;;;5037541;28;20788;-60
2021/11/14 12:29:06;;;;;;;13.07;5.32;;;13.40;99.90;;;;;;5034915;28;20063;-60
2021/11/14 12:31:49;;;;;;;11.20;4.47;;;13.40;99.90;;;;;;5021663;28;20040;-59
2021/11/14 12:34:27;;;;;;;9.48;4.45;;;13.30;99.90;;;;;;5037109;28;20025;-58
2021/11/14 12:37:11;;;;;;;11.63;4.53;;;13.30;99.90;;;;;;5043533;28;20036;-59